createdAt,value
2022-10-21T00:01:42.262Z,8.90
2022-10-21T00:04:09.055Z,9.10
2022-10-21T00:06:35.805Z,9.30
2022-10-21T00:09:02.616Z,9.40
2022-10-21T00:11:29.456Z,9.40
2022-10-21T00:13:56.175Z,9.30
2022-10-21T00:16:22.935Z,9.40
2022-10-21T00:18:49.828Z,9.30
2022-10-21T00:21:19.302Z,9.30
2022-10-21T00:23:47.118Z,9.20
2022-10-21T00:26:14.960Z,9.10
2022-10-21T00:28:42.357Z,9.20
2022-10-21T00:31:11.636Z,9.30
2022-10-21T00:33:38.446Z,9.40
2022-10-21T00:36:07.635Z,9.50
2022-10-21T00:38:35.526Z,9.40
2022-10-21T00:41:02.511Z,9.50
2022-10-21T00:43:29.736Z,9.50
2022-10-21T00:46:02.987Z,9.40
2022-10-21T00:48:44.666Z,9.30
2022-10-21T00:51:16.403Z,9.40
2022-10-21T00:53:46.146Z,9.60
2022-10-21T00:56:18.234Z,9.60
2022-10-21T00:58:47.992Z,9.70
2022-10-21T01:01:17.970Z,9.70
2022-10-21T01:03:47.561Z,9.80
2022-10-21T01:06:15.743Z,9.80
2022-10-21T01:08:42.610Z,9.70
2022-10-21T01:11:15.655Z,9.70
2022-10-21T01:14:01.147Z,9.70
2022-10-21T01:16:33.938Z,9.60
2022-10-21T01:19:03.438Z,9.60
2022-10-21T01:21:48.155Z,9.60
2022-10-21T01:24:45.970Z,9.50
2022-10-21T01:27:33.131Z,9.60
2022-10-21T01:30:35.006Z,9.60
2022-10-21T01:33:23.475Z,9.60
2022-10-21T01:35:58.814Z,9.70
2022-10-21T01:38:42.687Z,9.70
2022-10-21T01:41:21.827Z,9.80
2022-10-21T01:44:04.242Z,9.80
2022-10-21T01:46:41.383Z,9.80
2022-10-21T01:49:16.021Z,9.80
2022-10-21T01:51:43.688Z,9.90
2022-10-21T01:54:14.772Z,9.90
2022-10-21T01:56:44.104Z,9.90
2022-10-21T01:59:13.587Z,9.90
2022-10-21T02:01:40.888Z,9.80
2022-10-21T02:04:09.931Z,9.70
2022-10-21T02:06:36.863Z,9.70
2022-10-21T02:09:03.745Z,9.70
2022-10-21T02:11:34.060Z,9.80
2022-10-21T02:14:23.132Z,9.80
2022-10-21T02:16:52.093Z,9.80
2022-10-21T02:19:20.405Z,9.70
2022-10-21T02:21:49.631Z,9.80
2022-10-21T02:24:19.783Z,9.80
2022-10-21T02:26:46.642Z,9.90
2022-10-21T02:29:14.830Z,9.90
2022-10-21T02:31:54.666Z,9.90
2022-10-21T02:34:39.527Z,9.90
2022-10-21T02:37:24.267Z,9.90
2022-10-21T02:40:13.215Z,9.90
2022-10-21T02:42:46.004Z,9.90
2022-10-21T02:45:12.891Z,9.90
2022-10-21T02:47:40.762Z,9.90
2022-10-21T02:50:08.196Z,9.90
2022-10-21T02:52:34.980Z,9.90
2022-10-21T02:55:01.835Z,9.90
2022-10-21T02:57:28.617Z,9.90
2022-10-21T02:59:55.362Z,10.00
2022-10-21T03:02:22.102Z,9.90
2022-10-21T03:04:48.846Z,9.90
2022-10-21T03:07:15.616Z,9.80
2022-10-21T03:09:42.387Z,9.80
2022-10-21T03:12:09.146Z,9.80
2022-10-21T03:14:35.955Z,9.80
2022-10-21T03:17:02.690Z,9.70
2022-10-21T03:19:29.438Z,9.70
2022-10-21T03:21:56.442Z,9.60
2022-10-21T03:24:28.551Z,9.50
2022-10-21T03:26:56.342Z,9.50
2022-10-21T03:29:23.092Z,9.40
2022-10-21T03:31:49.810Z,9.50
2022-10-21T03:34:16.636Z,9.50
2022-10-21T03:36:43.379Z,9.50
2022-10-21T03:39:11.517Z,9.60
2022-10-21T03:41:38.516Z,9.60
2022-10-21T03:44:05.314Z,9.70
2022-10-21T03:46:32.188Z,9.80
2022-10-21T03:49:02.826Z,9.80
2022-10-21T03:51:32.668Z,9.70
2022-10-21T03:53:59.421Z,9.80
2022-10-21T03:56:26.299Z,9.90
2022-10-21T03:58:56.378Z,9.90
2022-10-21T04:01:25.456Z,9.80
2022-10-21T04:03:52.298Z,9.80
2022-10-21T04:06:19.272Z,9.80
2022-10-21T04:08:46.118Z,9.70
2022-10-21T04:11:12.920Z,9.70
2022-10-21T04:13:39.664Z,9.80
2022-10-21T04:16:08.616Z,9.90
2022-10-21T04:18:35.501Z,9.80
2022-10-21T04:21:02.322Z,9.80
2022-10-21T04:23:29.582Z,9.90
2022-10-21T04:25:56.335Z,9.90
2022-10-21T04:28:23.319Z,9.90
2022-10-21T04:30:50.885Z,9.80
2022-10-21T04:33:17.870Z,9.70
2022-10-21T04:35:44.659Z,9.50
2022-10-21T04:38:11.429Z,9.40
2022-10-21T04:40:38.194Z,9.50
2022-10-21T04:43:05.194Z,9.50
2022-10-21T04:45:32.138Z,9.50
2022-10-21T04:47:58.842Z,9.60
2022-10-21T04:50:25.620Z,9.60
2022-10-21T04:52:52.497Z,9.70
2022-10-21T04:55:19.240Z,9.70
2022-10-21T04:57:46.181Z,9.80
2022-10-21T05:00:13.348Z,9.80
2022-10-21T05:02:40.444Z,9.70
2022-10-21T05:05:07.844Z,9.50
2022-10-21T05:07:34.612Z,9.50
2022-10-21T05:10:01.509Z,9.50
2022-10-21T05:12:28.303Z,9.50
2022-10-21T05:14:55.088Z,9.60
2022-10-21T05:17:21.855Z,9.60
2022-10-21T05:19:48.595Z,9.60
2022-10-21T05:22:15.335Z,9.60
2022-10-21T05:24:42.086Z,9.50
2022-10-21T05:27:08.854Z,9.40
2022-10-21T05:29:35.600Z,9.40
2022-10-21T05:32:02.340Z,9.40
2022-10-21T05:34:29.093Z,9.50
2022-10-21T05:36:55.826Z,9.60
2022-10-21T05:39:22.744Z,9.60
2022-10-21T05:41:49.496Z,9.70
2022-10-21T05:44:16.354Z,9.70
2022-10-21T05:46:43.080Z,9.80
2022-10-21T05:49:09.917Z,9.90
2022-10-21T05:51:36.640Z,9.90
2022-10-21T05:54:05.382Z,9.90
2022-10-21T05:56:32.440Z,9.80
2022-10-21T05:58:59.180Z,9.80
2022-10-21T06:01:25.992Z,9.70
2022-10-21T06:03:52.916Z,9.80
2022-10-21T06:06:19.704Z,9.80
2022-10-21T06:08:46.625Z,9.80
2022-10-21T06:11:16.721Z,9.80
2022-10-21T06:13:43.963Z,9.80
2022-10-21T06:16:12.539Z,9.80
2022-10-21T06:18:40.819Z,9.80
2022-10-21T06:21:07.885Z,9.70
2022-10-21T06:23:35.106Z,9.70
2022-10-21T06:26:08.408Z,9.80
2022-10-21T06:28:38.468Z,9.80
2022-10-21T06:31:06.587Z,9.70
2022-10-21T06:33:34.334Z,9.60
2022-10-21T06:36:01.360Z,9.80
2022-10-21T06:38:28.135Z,9.90
2022-10-21T06:41:02.110Z,9.80
2022-10-21T06:43:29.549Z,9.70
2022-10-21T06:46:04.498Z,9.70
2022-10-21T06:48:31.494Z,9.80
2022-10-21T06:51:03.750Z,9.80
2022-10-21T06:53:32.942Z,9.90
2022-10-21T06:56:08.202Z,9.90
2022-10-21T06:58:56.974Z,9.80
2022-10-21T07:01:34.719Z,9.90
2022-10-21T07:04:08.639Z,10.00
2022-10-21T07:06:35.499Z,10.00
2022-10-21T07:09:03.166Z,10.20
2022-10-21T07:11:29.966Z,10.20
2022-10-21T07:13:56.959Z,10.30
2022-10-21T07:16:32.384Z,10.30
2022-10-21T07:18:59.459Z,10.30
2022-10-21T07:21:27.996Z,10.10
2022-10-21T07:23:58.961Z,10.10
2022-10-21T07:26:28.277Z,10.20
2022-10-21T07:28:58.018Z,10.20
2022-10-21T07:31:25.216Z,10.10
2022-10-21T07:33:52.126Z,10.10
2022-10-21T07:36:25.271Z,10.20
2022-10-21T07:38:53.324Z,10.30
2022-10-21T07:41:29.465Z,10.30
2022-10-21T07:43:56.341Z,10.30
2022-10-21T07:46:23.631Z,10.40
2022-10-21T07:48:51.061Z,10.50
2022-10-21T07:51:21.053Z,10.40
2022-10-21T07:53:53.724Z,10.40
2022-10-21T07:56:25.831Z,10.40
2022-10-21T07:58:53.355Z,10.40
2022-10-21T08:01:21.070Z,10.40
2022-10-21T08:03:48.164Z,10.40
2022-10-21T08:06:17.422Z,10.40
2022-10-21T08:08:44.832Z,10.40
2022-10-21T08:11:12.484Z,10.50
2022-10-21T08:13:41.600Z,10.60
2022-10-21T08:16:08.410Z,10.60
2022-10-21T08:18:35.241Z,10.70
2022-10-21T08:21:04.260Z,10.70
2022-10-21T08:23:31.277Z,10.80
2022-10-21T08:26:00.809Z,10.80
2022-10-21T08:28:30.163Z,10.90
2022-10-21T08:31:11.686Z,10.80
2022-10-21T08:33:38.946Z,10.90
2022-10-21T08:36:07.728Z,10.90
2022-10-21T08:38:34.595Z,10.90
2022-10-21T08:41:02.357Z,10.90
2022-10-21T08:43:35.383Z,11.00
2022-10-21T08:46:08.186Z,11.00
2022-10-21T08:48:47.875Z,11.00
2022-10-21T08:51:32.372Z,11.20
2022-10-21T08:54:05.700Z,11.20
2022-10-21T08:56:32.740Z,11.30
2022-10-21T08:58:59.496Z,11.20
2022-10-21T09:01:34.117Z,11.20
2022-10-21T09:04:08.620Z,11.20
2022-10-21T09:06:35.395Z,11.20
2022-10-21T09:09:07.978Z,11.30
2022-10-21T09:11:52.972Z,11.40
2022-10-21T09:14:25.533Z,11.40
2022-10-21T09:17:08.440Z,11.30
2022-10-21T09:20:04.511Z,11.40
2022-10-21T09:22:40.579Z,11.50
2022-10-21T09:25:55.122Z,11.40
2022-10-21T09:28:24.286Z,11.60
2022-10-21T09:30:52.668Z,11.70
2022-10-21T09:33:22.535Z,11.80
2022-10-21T09:36:04.888Z,11.80
2022-10-21T09:38:46.584Z,11.90
2022-10-21T09:41:23.279Z,12.00
2022-10-21T09:43:50.883Z,12.00
2022-10-21T09:46:18.571Z,12.00
2022-10-21T09:51:40.312Z,12.10
2022-10-21T09:54:16.839Z,12.20
2022-10-21T09:56:57.121Z,12.30
2022-10-21T09:59:27.968Z,12.30
2022-10-21T10:02:07.317Z,12.30
2022-10-21T10:04:35.443Z,12.40
2022-10-21T10:07:19.517Z,12.60
2022-10-21T10:09:48.202Z,12.80
2022-10-21T10:12:23.904Z,12.90
2022-10-21T10:14:51.993Z,12.90
2022-10-21T10:17:38.812Z,12.70
2022-10-21T10:20:06.059Z,12.60
2022-10-21T10:22:43.268Z,12.50
2022-10-21T10:25:28.589Z,12.50
2022-10-21T10:28:25.006Z,12.80
2022-10-21T10:30:57.490Z,12.80
2022-10-21T10:33:26.085Z,12.90
2022-10-21T10:36:03.328Z,13.00
2022-10-21T10:41:18.616Z,13.00
2022-10-21T10:43:52.043Z,13.00
2022-10-21T10:46:32.506Z,13.10
2022-10-21T10:49:25.249Z,13.10
2022-10-21T10:52:21.549Z,13.00
2022-10-21T10:54:49.872Z,12.80
2022-10-21T10:57:34.362Z,12.70
2022-10-21T11:00:20.357Z,12.70
2022-10-21T11:05:45.264Z,12.70
2022-10-21T11:08:34.235Z,12.80
2022-10-21T11:11:05.849Z,13.10
2022-10-21T11:13:38.805Z,13.10
2022-10-21T11:16:44.883Z,13.00
2022-10-21T11:19:42.028Z,13.00
2022-10-21T11:22:21.073Z,13.00
2022-10-21T11:25:26.803Z,13.10
2022-10-21T11:27:59.124Z,13.00
2022-10-21T11:30:59.863Z,13.10
2022-10-21T11:33:29.495Z,13.10
2022-10-21T11:36:15.952Z,13.20
2022-10-21T11:39:10.432Z,13.30
2022-10-21T11:41:40.518Z,13.30
2022-10-21T11:44:38.723Z,13.40
2022-10-21T11:47:16.923Z,13.40
2022-10-21T11:49:55.711Z,13.30
2022-10-21T11:52:32.851Z,13.20
2022-10-21T11:55:16.073Z,13.30
2022-10-21T11:58:02.471Z,13.30
2022-10-21T12:00:41.990Z,13.30
2022-10-21T12:03:20.630Z,13.60
2022-10-21T12:05:52.820Z,13.50
2022-10-21T12:08:27.527Z,13.50
2022-10-21T12:11:06.265Z,13.50
2022-10-21T12:13:44.044Z,13.30
2022-10-21T12:16:16.137Z,13.40
2022-10-21T12:18:56.913Z,13.60
2022-10-21T12:21:31.250Z,13.60
2022-10-21T12:24:14.317Z,13.50
2022-10-21T12:26:53.538Z,13.50
2022-10-21T12:29:49.406Z,13.40
2022-10-21T12:32:27.205Z,13.50
2022-10-21T12:34:54.815Z,13.50
2022-10-21T12:37:52.662Z,13.50
2022-10-21T12:40:25.512Z,13.50
2022-10-21T12:43:20.085Z,13.40
2022-10-21T12:45:47.863Z,13.40
2022-10-21T12:48:38.327Z,13.30
2022-10-21T12:51:16.599Z,13.30
2022-10-21T12:54:02.150Z,13.30
2022-10-21T12:56:59.336Z,13.30
2022-10-21T12:59:34.053Z,13.40
2022-10-21T13:02:07.839Z,13.30
2022-10-21T13:04:34.576Z,13.30
2022-10-21T13:07:15.042Z,13.30
2022-10-21T13:09:51.162Z,13.30
2022-10-21T13:12:17.935Z,13.30
2022-10-21T13:14:53.995Z,13.40
2022-10-21T13:17:20.685Z,13.40
2022-10-21T13:19:55.761Z,13.40
2022-10-21T13:22:36.035Z,13.30
2022-10-21T13:25:32.392Z,13.30
2022-10-21T13:28:18.367Z,13.30
2022-10-21T13:30:51.004Z,13.30
2022-10-21T13:33:30.368Z,13.40
2022-10-21T13:36:08.051Z,13.40
2022-10-21T13:38:37.529Z,13.30
2022-10-21T13:41:18.119Z,13.10
2022-10-21T13:43:53.409Z,13.10
2022-10-21T13:46:26.735Z,13.10
2022-10-21T13:48:54.302Z,13.10
2022-10-21T13:51:27.624Z,13.10
2022-10-21T13:54:00.175Z,13.00
2022-10-21T13:56:38.236Z,13.10
2022-10-21T13:59:07.065Z,13.00
2022-10-21T14:01:49.028Z,12.90
2022-10-21T14:04:17.138Z,12.80
2022-10-21T14:06:53.063Z,12.80
2022-10-21T14:09:24.273Z,12.90
2022-10-21T14:12:01.560Z,12.90
2022-10-21T14:14:30.009Z,12.90
2022-10-21T14:17:02.760Z,12.90
2022-10-21T14:19:36.728Z,12.80
2022-10-21T14:24:43.063Z,12.60
2022-10-21T14:27:16.704Z,12.70
2022-10-21T14:29:44.512Z,12.70
2022-10-21T14:32:15.559Z,12.70
2022-10-21T14:34:58.540Z,12.50
2022-10-21T14:37:25.367Z,12.50
2022-10-21T14:39:52.120Z,12.50
2022-10-21T14:42:22.364Z,12.50
2022-10-21T14:44:52.360Z,12.30
2022-10-21T14:47:24.910Z,12.40
2022-10-21T14:49:54.613Z,12.30
2022-10-21T14:52:42.704Z,12.30
2022-10-21T14:55:14.597Z,12.20
2022-10-21T14:57:43.596Z,12.30
2022-10-21T15:00:41.644Z,12.30
2022-10-21T15:03:10.781Z,12.40
2022-10-21T15:05:48.587Z,12.30
2022-10-21T15:08:28.886Z,12.20
2022-10-21T15:11:02.263Z,12.30
2022-10-21T15:13:29.049Z,12.20
2022-10-21T15:15:59.010Z,12.10
2022-10-21T15:18:30.461Z,12.20
2022-10-21T15:21:06.030Z,12.20
2022-10-21T15:23:43.413Z,12.20
2022-10-21T15:26:16.256Z,12.20
2022-10-21T15:28:43.342Z,12.20
2022-10-21T15:31:28.233Z,12.20
2022-10-21T15:33:57.032Z,12.10
2022-10-21T15:36:24.510Z,12.10
2022-10-21T15:38:51.267Z,12.00
2022-10-21T15:41:21.230Z,12.00
2022-10-21T15:43:58.874Z,12.00
2022-10-21T15:46:27.240Z,11.90
2022-10-21T15:48:54.166Z,11.70
2022-10-21T15:51:21.016Z,11.50
2022-10-21T15:53:47.800Z,11.50
2022-10-21T15:56:18.823Z,11.70
2022-10-21T15:58:45.725Z,11.80
2022-10-21T16:01:15.000Z,11.60
2022-10-21T16:03:42.521Z,11.60
2022-10-21T16:06:16.449Z,11.80
2022-10-21T16:08:43.275Z,11.80
2022-10-21T16:11:15.271Z,11.40
2022-10-21T16:13:45.710Z,11.30
2022-10-21T16:16:21.855Z,11.30
2022-10-21T16:18:48.727Z,11.40
2022-10-21T16:21:16.111Z,11.50
2022-10-21T16:23:43.512Z,11.30
2022-10-21T16:26:25.008Z,11.00
2022-10-21T16:28:53.200Z,11.00
2022-10-21T16:31:20.047Z,10.80
2022-10-21T16:33:46.813Z,10.90
2022-10-21T16:36:13.706Z,10.90
2022-10-21T16:38:40.476Z,10.80
2022-10-21T16:41:15.501Z,10.40
2022-10-21T16:43:43.416Z,10.40
2022-10-21T16:46:24.902Z,10.60
2022-10-21T16:48:52.733Z,10.50
2022-10-21T16:51:22.671Z,10.60
2022-10-21T16:53:49.689Z,10.60
2022-10-21T16:56:17.178Z,10.70
2022-10-21T16:58:44.711Z,10.70
2022-10-21T17:01:18.049Z,10.30
2022-10-21T17:03:44.864Z,10.10
2022-10-21T17:06:21.008Z,10.20
2022-10-21T17:08:49.255Z,10.40
2022-10-21T17:11:20.793Z,10.40
2022-10-21T17:13:47.717Z,10.50
2022-10-21T17:16:15.574Z,10.70
2022-10-21T17:18:43.096Z,10.80
2022-10-21T17:21:22.964Z,10.90
2022-10-21T17:23:51.098Z,10.90
2022-10-21T17:26:19.012Z,10.80
2022-10-21T17:28:46.485Z,10.80
2022-10-21T17:31:21.998Z,10.70
2022-10-21T17:33:50.359Z,10.70
2022-10-21T17:36:18.368Z,10.50
2022-10-21T17:38:45.707Z,10.30
2022-10-21T17:41:15.080Z,10.30
2022-10-21T17:43:42.022Z,10.30
2022-10-21T17:46:15.871Z,10.30
2022-10-21T17:48:42.822Z,10.40
2022-10-21T17:51:09.771Z,10.40
2022-10-21T17:53:36.696Z,10.30
2022-10-21T17:56:06.856Z,10.30
2022-10-21T17:58:34.509Z,10.30
2022-10-21T18:01:10.116Z,10.10
2022-10-21T18:03:37.377Z,10.20
2022-10-21T18:06:06.451Z,10.40
2022-10-21T18:08:33.284Z,10.20
2022-10-21T18:11:00.809Z,10.00
2022-10-21T18:13:30.003Z,10.00
2022-10-21T18:16:07.278Z,10.00
2022-10-21T18:18:34.287Z,10.10
2022-10-21T18:21:05.966Z,10.10
2022-10-21T18:23:33.507Z,9.90
2022-10-21T18:26:25.012Z,9.80
2022-10-21T18:28:53.836Z,10.00
2022-10-21T18:31:24.399Z,10.10
2022-10-21T18:33:54.839Z,10.10
2022-10-21T18:36:22.415Z,10.20
2022-10-21T18:38:49.828Z,9.90
2022-10-21T18:41:20.501Z,9.90
2022-10-21T18:43:53.639Z,10.00
2022-10-21T18:46:21.414Z,10.00
2022-10-21T18:48:48.854Z,10.00
2022-10-21T18:51:17.066Z,9.90
2022-10-21T18:53:47.240Z,9.90
2022-10-21T18:56:17.480Z,9.80
2022-10-21T18:58:44.680Z,9.80
2022-10-21T19:01:12.209Z,9.80
2022-10-21T19:03:39.132Z,9.80
2022-10-21T19:06:19.511Z,9.80
2022-10-21T19:08:47.717Z,9.80
2022-10-21T19:11:14.563Z,9.70
2022-10-21T19:13:41.352Z,9.80
2022-10-21T19:16:08.240Z,9.60
2022-10-21T19:18:35.111Z,9.50
2022-10-21T19:21:01.908Z,9.60
2022-10-21T19:23:31.632Z,9.60
2022-10-21T19:26:08.848Z,9.70
2022-10-21T19:28:36.540Z,9.50
2022-10-21T19:31:03.812Z,9.60
2022-10-21T19:33:31.130Z,9.60
2022-10-21T19:36:02.070Z,9.60
2022-10-21T19:38:43.387Z,9.50
2022-10-21T19:41:13.664Z,9.60
2022-10-21T19:43:40.413Z,9.70
2022-10-21T19:46:08.454Z,9.50
2022-10-21T19:48:36.841Z,9.30
2022-10-21T19:51:04.693Z,9.30
2022-10-21T19:53:34.160Z,9.50
2022-10-21T19:56:05.636Z,9.40
2022-10-21T19:58:33.620Z,9.50
2022-10-21T20:01:09.042Z,9.50
2022-10-21T20:03:40.119Z,9.50
2022-10-21T20:08:44.071Z,9.50
2022-10-21T20:11:19.384Z,9.60
2022-10-21T20:13:47.130Z,9.70
2022-10-21T20:16:16.292Z,9.70
2022-10-21T20:18:43.252Z,9.60
2022-10-21T20:21:10.004Z,9.30
2022-10-21T20:23:36.849Z,9.10
2022-10-21T20:26:04.601Z,9.30
2022-10-21T20:28:31.943Z,9.00
2022-10-21T20:31:11.203Z,9.00
2022-10-21T20:33:41.327Z,9.20
2022-10-21T20:36:12.509Z,9.10
2022-10-21T20:38:39.723Z,9.20
2022-10-21T20:41:09.561Z,9.10
2022-10-21T20:43:37.984Z,9.10
2022-10-21T20:46:07.564Z,9.20
2022-10-21T20:48:34.811Z,9.30
2022-10-21T20:51:07.839Z,9.30
2022-10-21T20:53:35.609Z,9.40
2022-10-21T20:56:03.722Z,9.40
2022-10-21T20:58:33.395Z,9.30
2022-10-21T21:01:10.251Z,9.50
2022-10-21T21:03:39.191Z,9.40
2022-10-21T21:06:07.124Z,9.40
2022-10-21T21:08:44.569Z,9.50
2022-10-21T21:11:16.011Z,9.40
2022-10-21T21:13:44.658Z,9.50
2022-10-21T21:16:17.119Z,9.50
2022-10-21T21:18:49.532Z,9.40
2022-10-21T21:21:18.540Z,9.50
2022-10-21T21:23:45.535Z,9.60
2022-10-21T21:26:21.580Z,9.60
2022-10-21T21:28:49.034Z,9.70
2022-10-21T21:31:15.814Z,9.80
2022-10-21T21:33:43.026Z,9.70
2022-10-21T21:36:10.312Z,9.60
2022-10-21T21:38:37.520Z,9.70
2022-10-21T21:41:08.100Z,9.70
2022-10-21T21:43:38.027Z,9.70
2022-10-21T21:46:05.115Z,9.70
2022-10-21T21:48:32.482Z,9.70
2022-10-21T21:51:07.859Z,9.80
2022-10-21T21:53:34.606Z,9.80
2022-10-21T21:56:03.401Z,9.80
2022-10-21T21:58:30.643Z,9.80
2022-10-21T22:00:57.716Z,9.80
2022-10-21T22:03:24.492Z,9.70
2022-10-21T22:05:51.460Z,9.80
2022-10-21T22:08:18.202Z,9.80
2022-10-21T22:10:44.945Z,9.60
2022-10-21T22:13:12.789Z,9.40
2022-10-21T22:15:48.443Z,9.50
2022-10-21T22:18:15.819Z,9.60
2022-10-21T22:20:42.649Z,9.50
2022-10-21T22:23:09.389Z,9.50
2022-10-21T22:25:36.159Z,9.50
2022-10-21T22:28:02.948Z,9.60
2022-10-21T22:30:29.752Z,9.60
2022-10-21T22:32:56.516Z,9.60
2022-10-21T22:35:23.279Z,9.70
2022-10-21T22:37:50.056Z,9.70
2022-10-21T22:40:16.820Z,9.80
2022-10-21T22:45:11.235Z,9.80
2022-10-21T22:47:38.208Z,9.90
2022-10-21T22:50:05.539Z,9.90
2022-10-21T22:52:32.333Z,9.80
2022-10-21T22:54:59.073Z,9.90
2022-10-21T22:57:25.880Z,9.90
2022-10-21T22:59:53.603Z,10.00
2022-10-21T23:02:20.741Z,10.00
2022-10-21T23:04:47.482Z,10.00
2022-10-21T23:07:14.233Z,10.00
2022-10-21T23:09:41.001Z,10.10
2022-10-21T23:12:07.964Z,10.00
2022-10-21T23:14:35.224Z,10.00
2022-10-21T23:17:01.958Z,9.80
2022-10-21T23:19:28.726Z,9.80
2022-10-21T23:21:55.516Z,9.90
2022-10-21T23:24:22.306Z,10.00
2022-10-21T23:26:49.094Z,10.00
2022-10-21T23:29:15.862Z,9.90
2022-10-21T23:31:42.641Z,9.90
2022-10-21T23:34:10.070Z,9.90
2022-10-21T23:36:37.099Z,10.00
2022-10-21T23:39:04.571Z,10.00
2022-10-21T23:41:31.334Z,9.90
2022-10-21T23:43:58.110Z,10.00
2022-10-21T23:46:25.051Z,10.00
2022-10-21T23:48:51.972Z,9.90
2022-10-21T23:51:19.433Z,10.00
2022-10-21T23:53:46.743Z,9.90
2022-10-21T23:56:13.537Z,9.90
2022-10-21T23:58:40.276Z,9.90
